Time;durP1;ratioP1;P1;durP2;ratioP2;P2;SDS_P1;SDS_P2;PMS_P1;PMS_P2;Temp;Humidity;BMP_temperature;BMP_pressure;BME280_temperature;BME280_humidity;BME280_pressure;Samples;Min_cycle;Max_cycle;Signal;HPM_P1;HPM_P2
2023/03/06 00:03:35;;;;;;;0.70;0.70;;;;;;;;;;10523096;28;20709;-83
2023/03/06 00:08:36;;;;;;;0.50;0.50;;;;;;;;;;10492115;28;20210;-80
2023/03/06 00:13:38;;;;;;;2.22;0.70;;;;;;;;;;10494046;28;20227;-82
2023/03/06 00:18:39;;;;;;;1.85;0.52;;;;;;;;;;10502644;28;20295;-80
2023/03/06 00:23:40;;;;;;;0.50;0.50;;;;;;;;;;10521499;28;20297;-80
2023/03/06 00:28:41;;;;;;;1.30;0.70;;;;;;;;;;10523746;28;20263;-81
2023/03/06 00:33:43;;;;;;;1.48;0.70;;;;;;;;;;10512796;28;20249;-80
2023/03/06 00:38:44;;;;;;;2.15;0.85;;;;;;;;;;10500831;28;20213;-82
2023/03/06 00:43:45;;;;;;;0.75;0.75;;;;;;;;;;10520009;28;20274;-80
2023/03/06 00:48:46;;;;;;;1.23;0.95;;;;;;;;;;10492497;28;20225;-80
2023/03/06 00:53:47;;;;;;;2.75;0.80;;;;;;;;;;10468782;28;20268;-82
2023/03/06 00:58:48;;;;;;;2.30;0.50;;;;;;;;;;10491930;28;20221;-81
2023/03/06 01:03:49;;;;;;;0.70;0.70;;;;;;;;;;10469232;28;20249;-83
2023/03/06 01:08:50;;;;;;;6.65;1.13;;;;;;;;;;10485336;28;20267;-80
2023/03/06 01:13:51;;;;;;;1.58;0.75;;;;;;;;;;10487083;28;20885;-80
2023/03/06 01:18:54;;;;;;;0.90;0.85;;;;;;;;;;10476666;28;20199;-80
2023/03/06 01:23:57;;;;;;;1.33;0.77;;;;;;;;;;10480167;28;20682;-83
2023/03/06 01:28:58;;;;;;;0.82;0.82;;;;;;;;;;10513066;28;20228;-86
2023/03/06 01:33:59;;;;;;;1.38;1.05;;;;;;;;;;10524863;28;20221;-82
2023/03/06 01:39:00;;;;;;;0.70;0.70;;;;;;;;;;10505552;28;20221;-84
2023/03/06 01:44:01;;;;;;;1.00;1.00;;;;;;;;;;10507504;28;20796;-80
2023/03/06 01:49:05;;;;;;;0.77;0.77;;;;;;;;;;10489670;28;20213;-81
2023/03/06 01:54:09;;;;;;;0.70;0.70;;;;;;;;;;10505553;28;20209;-81
2023/03/06 01:59:11;;;;;;;0.95;0.95;;;;;;;;;;10495209;28;20216;-85
2023/03/06 02:04:13;;;;;;;0.90;0.90;;;;;;;;;;10508262;28;20237;-80
2023/03/06 02:09:15;;;;;;;1.95;0.85;;;;;;;;;;10466920;28;20221;-82
2023/03/06 02:14:17;;;;;;;1.25;1.10;;;;;;;;;;10495819;28;20225;-82
2023/03/06 02:19:28;;;;;;;1.10;1.10;;;;;;;;;;10510542;28;20274;-80
2023/03/06 02:24:29;;;;;;;1.75;1.65;;;;;;;;;;10507200;28;20355;-80
2023/03/06 02:29:30;;;;;;;3.05;1.40;;;;;;;;;;10500479;28;20224;-84
2023/03/06 02:34:38;;;;;;;2.38;1.17;;;;;;;;;;10479960;28;20209;-80
2023/03/06 02:39:41;;;;;;;1.30;1.30;;;;;;;;;;10498969;28;20221;-79
2023/03/06 02:44:42;;;;;;;2.22;1.60;;;;;;;;;;10512849;28;20214;-83
2023/03/06 02:49:43;;;;;;;1.50;1.40;;;;;;;;;;10500512;28;20297;-81
2023/03/06 02:54:44;;;;;;;3.00;1.80;;;;;;;;;;10517530;28;20228;-79
2023/03/06 02:59:46;;;;;;;1.88;1.70;;;;;;;;;;10517734;28;20768;-80
2023/03/06 03:04:47;;;;;;;1.77;1.67;;;;;;;;;;10515632;28;20260;-80
2023/03/06 03:09:48;;;;;;;2.22;2.13;;;;;;;;;;10511725;28;20412;-84
2023/03/06 03:14:50;;;;;;;1.88;1.77;;;;;;;;;;10470057;28;20226;-83
2023/03/06 03:19:51;;;;;;;3.33;2.03;;;;;;;;;;10478329;28;20214;-82
2023/03/06 03:24:53;;;;;;;2.35;2.13;;;;;;;;;;10464546;28;20412;-80
2023/03/06 03:29:58;;;;;;;2.03;1.92;;;;;;;;;;10467747;28;20743;-82
2023/03/06 03:35:00;;;;;;;3.15;2.35;;;;;;;;;;10510968;28;20218;-81
2023/03/06 03:40:03;;;;;;;2.97;2.65;;;;;;;;;;10516461;28;20296;-83
2023/03/06 03:45:06;;;;;;;4.35;1.65;;;;;;;;;;10497576;28;20690;-78
2023/03/06 03:50:07;;;;;;;3.15;2.65;;;;;;;;;;10510556;28;20208;-80
2023/03/06 03:55:09;;;;;;;5.35;2.72;;;;;;;;;;10492323;28;20543;-82
2023/03/06 04:00:15;;;;;;;3.50;2.40;;;;;;;;;;10516881;28;20220;-81
2023/03/06 04:05:25;;;;;;;5.60;2.67;;;;;;;;;;10498360;28;20287;-80
2023/03/06 04:10:27;;;;;;;6.57;3.45;;;;;;;;;;10515350;28;20256;-84
2023/03/06 04:15:29;;;;;;;6.28;3.00;;;;;;;;;;10495000;28;20214;-83
2023/03/06 04:20:30;;;;;;;5.28;3.45;;;;;;;;;;10518617;28;20249;-81
2023/03/06 04:25:33;;;;;;;5.72;3.50;;;;;;;;;;10503516;28;20738;-82
2023/03/06 04:30:37;;;;;;;4.68;3.58;;;;;;;;;;10508102;28;20218;-81
2023/03/06 04:35:38;;;;;;;4.82;3.65;;;;;;;;;;10495236;28;20883;-81
2023/03/06 04:40:45;;;;;;;5.00;4.28;;;;;;;;;;10520104;28;20222;-82
2023/03/06 04:45:46;;;;;;;7.45;4.20;;;;;;;;;;10526849;28;20372;-80
2023/03/06 04:50:47;;;;;;;7.60;4.45;;;;;;;;;;10526849;28;20224;-83
2023/03/06 04:55:48;;;;;;;4.97;3.95;;;;;;;;;;10520672;28;20221;-83
2023/03/06 05:00:49;;;;;;;8.00;4.97;;;;;;;;;;10511377;28;20656;-82
2023/03/06 05:05:50;;;;;;;8.57;4.43;;;;;;;;;;10530083;28;20226;-83
2023/03/06 05:10:55;;;;;;;8.15;4.90;;;;;;;;;;10527617;28;20218;-81
2023/03/06 05:16:00;;;;;;;9.40;5.45;;;;;;;;;;10496417;28;20234;-83
2023/03/06 05:21:02;;;;;;;9.45;5.30;;;;;;;;;;10518752;28;20222;-83
2023/03/06 05:26:05;;;;;;;8.10;5.30;;;;;;;;;;10497971;28;20210;-83
2023/03/06 05:31:07;;;;;;;10.95;6.47;;;;;;;;;;10506101;28;21037;-81
2023/03/06 05:36:09;;;;;;;12.05;5.53;;;;;;;;;;10519361;28;20210;-83
2023/03/06 05:41:13;;;;;;;9.98;5.40;;;;;;;;;;10510668;28;21124;-82
2023/03/06 05:46:14;;;;;;;7.55;5.63;;;;;;;;;;10496263;28;20211;-82
2023/03/06 05:51:15;;;;;;;9.93;6.00;;;;;;;;;;10474491;28;20217;-82
2023/03/06 05:56:16;;;;;;;9.00;5.40;;;;;;;;;;10473500;28;20217;-81
2023/03/06 06:01:20;;;;;;;11.25;6.30;;;;;;;;;;10500809;28;20240;-82
2023/03/06 06:06:21;;;;;;;9.38;6.13;;;;;;;;;;10474615;28;20277;-81
2023/03/06 06:11:22;;;;;;;9.32;6.13;;;;;;;;;;10473514;28;20362;-82
2023/03/06 06:16:23;;;;;;;10.63;6.38;;;;;;;;;;10510750;28;20910;-79
2023/03/06 06:21:24;;;;;;;10.55;5.72;;;;;;;;;;10512756;28;20305;-81
2023/03/06 06:26:25;;;;;;;9.50;5.85;;;;;;;;;;10511655;28;20212;-83
2023/03/06 06:31:26;;;;;;;9.88;6.13;;;;;;;;;;10508661;28;20803;-79
2023/03/06 06:36:27;;;;;;;11.27;6.15;;;;;;;;;;10500206;28;20856;-81
2023/03/06 06:41:28;;;;;;;9.90;6.00;;;;;;;;;;10497623;28;20687;-80
2023/03/06 06:46:29;;;;;;;12.20;6.40;;;;;;;;;;10496736;28;20219;-78
2023/03/06 06:51:31;;;;;;;12.25;6.68;;;;;;;;;;10484113;28;20220;-78
2023/03/06 06:56:32;;;;;;;10.50;6.45;;;;;;;;;;10502342;28;20202;-81
2023/03/06 07:01:33;;;;;;;12.65;7.93;;;;;;;;;;10505109;28;20787;-79
2023/03/06 07:06:34;;;;;;;12.88;7.00;;;;;;;;;;10495638;28;20209;-80
2023/03/06 07:11:36;;;;;;;8.20;6.20;;;;;;;;;;10495562;28;20229;-78
2023/03/06 07:16:37;;;;;;;6.65;4.80;;;;;;;;;;10487307;28;20213;-79
2023/03/06 07:21:38;;;;;;;4.22;2.40;;;;;;;;;;10448206;28;20215;-79
2023/03/06 07:26:39;;;;;;;2.85;2.40;;;;;;;;;;10441247;28;20222;-79
2023/03/06 07:31:40;;;;;;;2.90;2.70;;;;;;;;;;10452687;28;20218;-79
2023/03/06 07:36:41;;;;;;;2.95;2.75;;;;;;;;;;11064460;22;20257;-82
2023/03/06 07:41:42;;;;;;;2.67;2.55;;;;;;;;;;10418048;28;20207;-81
2023/03/06 07:46:43;;;;;;;3.10;2.80;;;;;;;;;;10420657;28;20219;-80
2023/03/06 07:51:45;;;;;;;4.13;3.50;;;;;;;;;;10425415;28;20349;-81
2023/03/06 07:56:49;;;;;;;3.83;3.05;;;;;;;;;;10433243;28;20329;-81
2023/03/06 08:01:50;;;;;;;4.20;3.80;;;;;;;;;;10398102;28;20689;-81
2023/03/06 08:06:52;;;;;;;3.80;3.50;;;;;;;;;;10401069;28;20218;-82
2023/03/06 08:11:53;;;;;;;4.63;4.22;;;;;;;;;;10438250;28;20229;-80
2023/03/06 08:16:55;;;;;;;7.05;4.00;;;;;;;;;;10448407;28;20242;-80
2023/03/06 08:21:56;;;;;;;6.15;3.33;;;;;;;;;;10439810;28;20673;-81
2023/03/06 08:26:57;;;;;;;2.72;2.17;;;;;;;;;;10425122;28;20218;-81
2023/03/06 08:31:58;;;;;;;1.05;0.95;;;;;;;;;;10416843;28;20222;-81
2023/03/06 08:36:59;;;;;;;1.10;0.90;;;;;;;;;;10423854;28;20248;-81
2023/03/06 08:42:00;;;;;;;1.33;0.77;;;;;;;;;;10426686;28;20293;-81
2023/03/06 08:47:01;;;;;;;1.27;0.50;;;;;;;;;;10429842;28;20219;-81
2023/03/06 08:52:02;;;;;;;0.40;0.40;;;;;;;;;;10423119;28;20225;-81
2023/03/06 08:57:03;;;;;;;0.40;0.40;;;;;;;;;;10416860;28;20210;-82
2023/03/06 09:02:06;;;;;;;2.30;0.73;;;;;;;;;;10422173;28;20234;-81
2023/03/06 09:07:07;;;;;;;2.50;0.70;;;;;;;;;;10435110;28;20207;-83
2023/03/06 09:12:08;;;;;;;0.90;0.90;;;;;;;;;;10427014;28;20223;-81
2023/03/06 09:17:09;;;;;;;0.50;0.50;;;;;;;;;;10439111;28;20238;-80
2023/03/06 09:22:10;;;;;;;0.55;0.55;;;;;;;;;;10431663;28;20744;-81
2023/03/06 09:27:11;;;;;;;0.85;0.85;;;;;;;;;;10409178;28;20215;-81
2023/03/06 09:32:12;;;;;;;0.85;0.85;;;;;;;;;;10423748;28;20223;-81
2023/03/06 09:37:13;;;;;;;0.80;0.57;;;;;;;;;;10413566;28;20241;-81
2023/03/06 09:42:18;;;;;;;1.17;1.17;;;;;;;;;;10436547;28;20215;-80
2023/03/06 09:47:30;;;;;;;3.90;1.67;;;;;;;;;;10443102;28;20214;-80
2023/03/06 09:52:37;;;;;;;6.20;2.15;;;;;;;;;;10426316;28;20222;-82
2023/03/06 09:57:41;;;;;;;1.35;1.35;;;;;;;;;;10405442;28;20207;-81
2023/03/06 10:03:11;;;;;;;2.53;2.33;;;;;;;;;;10424338;28;20215;-81
2023/03/06 10:08:30;;;;;;;2.15;2.05;;;;;;;;;;10427053;28;20820;-81
2023/03/06 10:13:36;;;;;;;4.82;1.83;;;;;;;;;;10424700;28;20218;-81
2023/03/06 10:18:38;;;;;;;2.70;2.50;;;;;;;;;;10401508;28;20219;-83
2023/03/06 10:23:47;;;;;;;3.58;2.70;;;;;;;;;;10422771;28;20965;-80
2023/03/06 10:28:54;;;;;;;8.48;3.60;;;;;;;;;;10404139;28;21603;-82
2023/03/06 10:34:13;;;;;;;4.45;3.03;;;;;;;;;;10438016;28;20286;-81
2023/03/06 10:39:16;;;;;;;6.65;2.88;;;;;;;;;;10405171;28;20253;-81
2023/03/06 10:44:18;;;;;;;3.60;3.25;;;;;;;;;;10444209;28;20218;-81
2023/03/06 10:49:25;;;;;;;4.07;3.28;;;;;;;;;;10419261;28;20218;-83
2023/03/06 10:54:27;;;;;;;5.40;4.13;;;;;;;;;;10369810;28;20654;-81
2023/03/06 10:59:28;;;;;;;5.60;3.92;;;;;;;;;;10411216;28;20914;-81
2023/03/06 11:04:31;;;;;;;5.53;3.05;;;;;;;;;;10408978;28;20242;-80
2023/03/06 11:09:32;;;;;;;5.00;2.38;;;;;;;;;;10419688;28;20210;-81
2023/03/06 11:14:33;;;;;;;1.38;1.38;;;;;;;;;;10434250;28;20221;-81
2023/03/06 11:19:34;;;;;;;1.05;1.05;;;;;;;;;;10433459;28;20257;-82
2023/03/06 11:24:38;;;;;;;1.73;1.60;;;;;;;;;;10403745;28;20305;-83
2023/03/06 11:29:44;;;;;;;1.15;1.00;;;;;;;;;;10415553;28;20221;-81
2023/03/06 11:34:57;;;;;;;2.05;0.70;;;;;;;;;;10369445;28;20298;-82
2023/03/06 11:40:10;;;;;;;0.60;0.60;;;;;;;;;;10381574;28;20234;-83
2023/03/06 11:45:23;;;;;;;0.90;0.90;;;;;;;;;;10411676;28;20836;-80
2023/03/06 11:50:39;;;;;;;0.93;0.93;;;;;;;;;;10395412;28;20207;-79
2023/03/06 11:55:50;;;;;;;0.82;0.82;;;;;;;;;;10434989;28;20222;-80
2023/03/06 12:01:17;;;;;;;0.82;0.82;;;;;;;;;;10404374;28;20210;-80
2023/03/06 12:06:28;;;;;;;1.23;1.20;;;;;;;;;;10395476;28;20222;-82
2023/03/06 12:11:34;;;;;;;0.88;0.88;;;;;;;;;;10405092;28;20394;-80
2023/03/06 12:16:44;;;;;;;1.33;1.23;;;;;;;;;;10403815;28;20211;-80
2023/03/06 12:21:55;;;;;;;1.58;1.48;;;;;;;;;;10417770;28;20238;-80
2023/03/06 12:27:04;;;;;;;0.80;0.80;;;;;;;;;;10432833;28;20230;-81
2023/03/06 12:32:13;;;;;;;0.50;0.50;;;;;;;;;;10409669;28;20295;-82
2023/03/06 12:37:33;;;;;;;0.40;0.40;;;;;;;;;;10414982;28;20245;-80
2023/03/06 12:42:59;;;;;;;0.45;0.45;;;;;;;;;;10415187;28;20295;-82
2023/03/06 12:48:00;;;;;;;1.45;1.30;;;;;;;;;;10426327;28;20215;-81
2023/03/06 12:53:13;;;;;;;0.98;0.80;;;;;;;;;;10422145;28;20225;-81
2023/03/06 12:58:30;;;;;;;1.17;1.17;;;;;;;;;;10429848;28;20219;-81
2023/03/06 13:03:46;;;;;;;0.30;0.30;;;;;;;;;;10426786;28;20217;-82
2023/03/06 13:09:20;;;;;;;0.57;0.57;;;;;;;;;;10407429;28;20210;-80
2023/03/06 13:14:26;;;;;;;0.50;0.50;;;;;;;;;;10367027;28;20233;-80
2023/03/06 13:19:27;;;;;;;1.98;0.98;;;;;;;;;;10390083;28;20675;-80
2023/03/06 13:24:28;;;;;;;2.95;2.17;;;;;;;;;;10428351;28;20634;-81
2023/03/06 13:29:35;;;;;;;2.38;1.90;;;;;;;;;;10428141;28;20310;-80
2023/03/06 13:34:45;;;;;;;0.30;0.30;;;;;;;;;;10439157;28;20282;-81
2023/03/06 13:39:57;;;;;;;0.57;0.40;;;;;;;;;;10409771;28;20878;-82
2023/03/06 13:45:07;;;;;;;0.93;0.32;;;;;;;;;;10414633;28;20298;-81
2023/03/06 13:50:38;;;;;;;0.85;0.52;;;;;;;;;;10387497;28;20246;-82
2023/03/06 13:55:55;;;;;;;0.40;0.40;;;;;;;;;;10341976;28;21060;-81
2023/03/06 14:00:59;;;;;;;1.27;0.30;;;;;;;;;;10354312;28;20299;-80
2023/03/06 14:06:00;;;;;;;0.30;0.30;;;;;;;;;;10357775;28;20212;-79
2023/03/06 14:11:07;;;;;;;0.47;0.35;;;;;;;;;;10394279;28;20225;-82
2023/03/06 14:16:17;;;;;;;2.38;0.50;;;;;;;;;;10428606;28;20282;-80
2023/03/06 14:21:41;;;;;;;0.20;0.20;;;;;;;;;;10394179;28;22562;-80
2023/03/06 14:26:44;;;;;;;0.10;0.10;;;;;;;;;;10396654;28;20356;-80
2023/03/06 14:31:48;;;;;;;0.10;0.10;;;;;;;;;;10424012;28;20223;-79
2023/03/06 14:36:51;;;;;;;0.10;0.10;;;;;;;;;;10409105;28;20311;-78
2023/03/06 14:41:52;;;;;;;0.10;0.10;;;;;;;;;;10428043;28;20685;-80
2023/03/06 14:52:18;;;;;;;2.67;0.50;;;;;;;;;;10630050;22;20262;-83
2023/03/06 14:57:20;;;;;;;0.20;0.20;;;;;;;;;;10407632;28;20234;-83
2023/03/06 15:02:22;;;;;;;1.02;0.20;;;;;;;;;;10396712;28;20222;-83
2023/03/06 15:07:29;;;;;;;0.30;0.30;;;;;;;;;;10395872;28;20222;-81
2023/03/06 15:12:32;;;;;;;0.40;0.20;;;;;;;;;;10397057;28;20219;-81
2023/03/06 15:17:40;;;;;;;0.68;0.20;;;;;;;;;;10407856;28;20211;-80
2023/03/06 15:22:41;;;;;;;0.30;0.30;;;;;;;;;;10388385;28;20245;-81
2023/03/06 15:27:47;;;;;;;0.35;0.30;;;;;;;;;;10415625;28;20227;-81
2023/03/06 15:32:48;;;;;;;0.20;0.20;;;;;;;;;;10383816;28;20235;-81
2023/03/06 15:37:51;;;;;;;2.58;0.30;;;;;;;;;;10395837;28;20247;-80
2023/03/06 15:42:52;;;;;;;0.43;0.43;;;;;;;;;;10414230;28;20215;-82
2023/03/06 15:47:53;;;;;;;2.65;1.52;;;;;;;;;;10408084;28;20222;-80
2023/03/06 15:52:54;;;;;;;0.30;0.30;;;;;;;;;;10410899;28;20218;-81
2023/03/06 15:58:00;;;;;;;0.32;0.20;;;;;;;;;;10406812;28;20242;-79
2023/03/06 16:03:02;;;;;;;0.38;0.38;;;;;;;;;;10422836;28;20206;-80
2023/03/06 16:08:04;;;;;;;0.30;0.30;;;;;;;;;;10424681;28;20246;-80
2023/03/06 16:13:13;;;;;;;0.40;0.40;;;;;;;;;;10421063;28;20211;-79
2023/03/06 16:36:09;;;;;;;1.02;0.90;;;;;;;;;;10290829;28;21800;-79
2023/03/06 16:41:10;;;;;;;0.55;0.55;;;;;;;;;;10337370;28;20270;-81
2023/03/06 16:46:15;;;;;;;1.13;0.63;;;;;;;;;;10339777;28;20307;-82
2023/03/06 16:51:17;;;;;;;0.93;0.93;;;;;;;;;;10338751;28;20227;-81
2023/03/06 16:56:19;;;;;;;0.52;0.52;;;;;;;;;;10335820;28;20307;-81
2023/03/06 17:01:20;;;;;;;0.47;0.47;;;;;;;;;;10330510;28;20212;-81
2023/03/06 17:06:22;;;;;;;1.75;1.27;;;;;;;;;;10341452;28;20259;-81
2023/03/06 17:11:23;;;;;;;1.85;1.75;;;;;;;;;;10340145;28;20220;-81
2023/03/06 17:16:24;;;;;;;0.70;0.70;;;;;;;;;;10332307;28;20291;-80
2023/03/06 17:21:26;;;;;;;1.83;1.73;;;;;;;;;;10334861;28;20322;-81
2023/03/06 17:26:27;;;;;;;4.15;2.72;;;;;;;;;;10338720;28;20246;-80
2023/03/06 17:31:28;;;;;;;0.93;0.93;;;;;;;;;;10344017;28;20286;-79
2023/03/06 17:36:30;;;;;;;0.88;0.88;;;;;;;;;;10345860;28;20219;-78
2023/03/06 17:41:32;;;;;;;1.38;0.88;;;;;;;;;;10341695;28;20748;-80
2023/03/06 17:46:33;;;;;;;0.85;0.85;;;;;;;;;;10324391;28;20848;-78
2023/03/06 17:51:34;;;;;;;3.78;3.40;;;;;;;;;;10326575;28;20233;-80
2023/03/06 17:56:36;;;;;;;12.68;4.85;;;;;;;;;;10321667;28;20227;-79
2023/03/06 18:01:37;;;;;;;4.07;2.90;;;;;;;;;;10310834;28;20227;-80
2023/03/06 18:06:38;;;;;;;1.75;1.52;;;;;;;;;;10316721;28;20230;-79
2023/03/06 18:11:40;;;;;;;1.73;1.40;;;;;;;;;;10327588;28;20236;-80
2023/03/06 18:16:41;;;;;;;0.85;0.85;;;;;;;;;;10332024;28;20712;-79
2023/03/06 18:21:42;;;;;;;3.85;0.90;;;;;;;;;;10313308;28;20220;-80
2023/03/06 18:26:43;;;;;;;0.70;0.70;;;;;;;;;;10332167;28;20230;-79
2023/03/06 18:31:45;;;;;;;1.25;1.15;;;;;;;;;;10339604;28;20323;-81
2023/03/06 18:36:49;;;;;;;2.40;1.80;;;;;;;;;;10316818;28;20220;-78
2023/03/06 18:41:50;;;;;;;1.08;1.05;;;;;;;;;;10333506;28;20216;-79
2023/03/06 18:46:51;;;;;;;2.55;1.17;;;;;;;;;;10312887;28;20231;-80
2023/03/06 18:51:52;;;;;;;1.60;1.50;;;;;;;;;;10309613;28;20224;-79
2023/03/06 18:56:54;;;;;;;1.77;1.55;;;;;;;;;;10331962;28;20306;-79
2023/03/06 19:01:56;;;;;;;1.88;1.73;;;;;;;;;;10326193;28;20704;-79
2023/03/06 19:06:57;;;;;;;1.50;1.40;;;;;;;;;;10323598;28;20309;-81
2023/03/06 19:11:59;;;;;;;1.75;1.45;;;;;;;;;;10313774;28;20368;-78
2023/03/06 19:17:00;;;;;;;1.63;0.95;;;;;;;;;;10325090;28;20721;-78
2023/03/06 19:22:01;;;;;;;0.93;0.82;;;;;;;;;;10313033;28;20216;-79
2023/03/06 19:27:02;;;;;;;1.20;0.80;;;;;;;;;;10321075;28;20516;-78
2023/03/06 19:32:03;;;;;;;3.38;1.48;;;;;;;;;;10303923;28;20361;-82
2023/03/06 19:37:04;;;;;;;1.45;1.35;;;;;;;;;;10323663;28;20231;-78
2023/03/06 19:42:05;;;;;;;4.85;1.75;;;;;;;;;;10322238;28;20944;-78
2023/03/06 19:47:06;;;;;;;2.67;1.52;;;;;;;;;;10302883;28;20314;-79
2023/03/06 19:52:07;;;;;;;4.57;2.30;;;;;;;;;;10320008;28;20701;-80
2023/03/06 19:57:08;;;;;;;2.63;1.73;;;;;;;;;;10318275;28;20255;-78
2023/03/06 20:02:10;;;;;;;1.25;1.25;;;;;;;;;;10312478;28;20229;-79
2023/03/06 20:07:11;;;;;;;13.40;6.15;;;;;;;;;;10313279;28;20311;-79
2023/03/06 20:12:13;;;;;;;36.28;13.75;;;;;;;;;;10320428;28;21091;-77
2023/03/06 20:17:14;;;;;;;1.83;1.70;;;;;;;;;;10326406;28;20704;-78
2023/03/06 20:22:15;;;;;;;1.45;1.30;;;;;;;;;;10323782;28;20227;-78
2023/03/06 20:27:16;;;;;;;1.10;1.10;;;;;;;;;;10327725;28;20215;-79
2023/03/06 20:32:17;;;;;;;2.03;1.07;;;;;;;;;;10313629;28;20904;-80
2023/03/06 20:37:18;;;;;;;2.63;1.50;;;;;;;;;;10329110;28;20227;-79
2023/03/06 20:42:19;;;;;;;2.63;1.93;;;;;;;;;;10331463;28;20251;-78
2023/03/06 20:47:20;;;;;;;1.47;1.37;;;;;;;;;;10323313;28;20285;-78
2023/03/06 20:52:21;;;;;;;1.80;1.70;;;;;;;;;;10327552;28;20293;-80
2023/03/06 20:57:22;;;;;;;1.80;1.43;;;;;;;;;;10335564;28;20278;-79
2023/03/06 21:02:23;;;;;;;3.07;1.80;;;;;;;;;;10335654;28;20220;-80
2023/03/06 21:07:24;;;;;;;2.53;1.17;;;;;;;;;;10338795;28;20227;-80
2023/03/06 21:12:25;;;;;;;2.07;1.87;;;;;;;;;;10333547;28;20216;-78
2023/03/06 21:17:28;;;;;;;2.13;2.00;;;;;;;;;;10319563;28;20898;-78
2023/03/06 21:22:30;;;;;;;2.87;1.67;;;;;;;;;;10338084;28;20219;-78
2023/03/06 21:27:30;;;;;;;1.60;1.50;;;;;;;;;;10335670;28;20846;-80
2023/03/06 21:32:32;;;;;;;1.87;1.77;;;;;;;;;;10338359;28;20231;-80
2023/03/06 21:37:33;;;;;;;6.35;2.95;;;;;;;;;;10339201;28;20311;-77
2023/03/06 21:42:37;;;;;;;2.65;1.50;;;;;;;;;;10341320;28;20724;-78
2023/03/06 21:47:39;;;;;;;4.55;2.15;;;;;;;;;;10340168;28;20682;-80
2023/03/06 21:52:40;;;;;;;2.67;1.87;;;;;;;;;;10334922;28;20785;-78
2023/03/06 21:57:41;;;;;;;2.73;2.00;;;;;;;;;;10335061;28;20231;-79
2023/03/06 22:02:43;;;;;;;4.45;2.45;;;;;;;;;;10334547;28;20227;-79
2023/03/06 22:07:44;;;;;;;4.82;2.92;;;;;;;;;;10331902;28;20613;-80
2023/03/06 22:12:45;;;;;;;2.90;2.17;;;;;;;;;;10320252;28;20322;-78
2023/03/06 22:17:47;;;;;;;7.60;3.37;;;;;;;;;;10310517;28;20964;-78
2023/03/06 22:22:48;;;;;;;6.50;3.07;;;;;;;;;;10333073;28;20824;-78
2023/03/06 22:27:49;;;;;;;5.50;3.67;;;;;;;;;;10325548;28;20226;-79
2023/03/06 22:32:51;;;;;;;8.90;3.67;;;;;;;;;;10315424;28;20220;-80
2023/03/06 22:37:53;;;;;;;8.30;4.77;;;;;;;;;;10335424;28;20224;-81
2023/03/06 22:42:54;;;;;;;7.40;3.33;;;;;;;;;;10334948;28;20224;-78
2023/03/06 22:47:55;;;;;;;9.90;5.23;;;;;;;;;;10328534;28;20247;-79
2023/03/06 22:52:55;;;;;;;8.03;5.13;;;;;;;;;;10312032;28;20226;-78
2023/03/06 22:57:56;;;;;;;10.33;5.57;;;;;;;;;;10326804;28;20620;-79
2023/03/06 23:02:57;;;;;;;11.97;5.33;;;;;;;;;;10331543;28;21040;-77
2023/03/06 23:07:58;;;;;;;8.83;4.93;;;;;;;;;;10321358;28;20228;-79
2023/03/06 23:12:59;;;;;;;10.67;5.10;;;;;;;;;;10334857;28;20224;-80
2023/03/06 23:18:19;;;;;;;11.93;5.27;;;;;;;;;;10340594;28;20914;-78
2023/03/06 23:23:39;;;;;;;11.03;5.60;;;;;;;;;;10338607;28;20819;-79
2023/03/06 23:28:41;;;;;;;14.23;5.85;;;;;;;;;;10334344;28;20617;-78
2023/03/06 23:33:43;;;;;;;13.40;6.32;;;;;;;;;;10320946;28;20228;-77
2023/03/06 23:38:44;;;;;;;13.55;6.65;;;;;;;;;;10329652;28;21083;-76
2023/03/06 23:43:46;;;;;;;11.57;5.85;;;;;;;;;;10306977;28;20239;-78
2023/03/06 23:48:47;;;;;;;11.98;5.53;;;;;;;;;;10333281;28;20239;-81
2023/03/06 23:53:52;;;;;;;11.30;5.68;;;;;;;;;;10320594;28;20224;-76
2023/03/06 23:58:54;;;;;;;15.77;6.75;;;;;;;;;;10334119;28;20284;-79
